createdAt,value
2022-09-22T00:01:11.945Z,9.26
2022-09-22T00:03:42.398Z,9.28
2022-09-22T00:06:13.608Z,9.29
2022-09-22T00:08:44.091Z,9.28
2022-09-22T00:11:17.127Z,9.30
2022-09-22T00:13:48.810Z,9.35
2022-09-22T00:16:15.991Z,9.37
2022-09-22T00:18:43.090Z,9.36
2022-09-22T00:21:20.130Z,9.45
2022-09-22T00:23:47.795Z,9.44
2022-09-22T00:26:21.870Z,9.41
2022-09-22T00:28:51.490Z,9.46
2022-09-22T00:31:24.266Z,9.52
2022-09-22T00:33:53.190Z,9.55
2022-09-22T00:36:22.570Z,9.52
2022-09-22T00:38:51.661Z,9.50
2022-09-22T00:41:22.030Z,9.51
2022-09-22T00:43:51.872Z,9.55
2022-09-22T00:46:24.408Z,9.62
2022-09-22T00:48:56.211Z,9.64
2022-09-22T00:51:27.203Z,9.65
2022-09-22T00:53:56.580Z,9.66
2022-09-22T00:56:35.470Z,9.64
2022-09-22T00:59:08.452Z,9.61
2022-09-22T01:01:36.987Z,9.61
2022-09-22T01:04:04.753Z,9.61
2022-09-22T01:06:32.031Z,9.64
2022-09-22T01:09:00.313Z,9.65
2022-09-22T01:11:30.030Z,9.61
2022-09-22T01:14:34.450Z,9.60
2022-09-22T01:17:16.571Z,9.55
2022-09-22T01:20:01.539Z,9.61
2022-09-22T01:22:40.590Z,9.58
2022-09-22T01:25:22.678Z,9.59
2022-09-22T01:28:28.816Z,9.59
2022-09-22T01:31:11.870Z,9.61
2022-09-22T01:33:44.892Z,9.62
2022-09-22T01:36:36.070Z,9.63
2022-09-22T01:39:28.699Z,9.66
2022-09-22T01:42:11.672Z,9.68
2022-09-22T01:45:01.692Z,9.67
2022-09-22T01:47:36.670Z,9.65
2022-09-22T01:50:09.569Z,9.61
2022-09-22T01:52:38.970Z,9.62
2022-09-22T01:55:27.259Z,9.68
2022-09-22T01:57:59.966Z,9.68
2022-09-22T02:00:27.530Z,9.66
2022-09-22T02:03:01.330Z,9.56
2022-09-22T02:05:45.432Z,9.47
2022-09-22T02:08:18.311Z,9.34
2022-09-22T02:10:48.191Z,9.28
2022-09-22T02:13:15.731Z,9.25
2022-09-22T02:16:01.681Z,9.23
2022-09-22T02:18:40.133Z,9.15
2022-09-22T02:21:07.399Z,9.10
2022-09-22T02:23:34.419Z,9.05
2022-09-22T02:26:03.218Z,9.02
2022-09-22T02:28:33.629Z,9.04
2022-09-22T02:31:19.527Z,9.07
2022-09-22T02:33:49.289Z,9.08
2022-09-22T02:36:53.930Z,9.10
2022-09-22T02:39:35.098Z,9.04
2022-09-22T02:42:11.350Z,9.12
2022-09-22T02:44:47.330Z,9.14
2022-09-22T02:47:32.649Z,9.14
2022-09-22T02:50:01.130Z,9.10
2022-09-22T02:52:27.951Z,9.05
2022-09-22T02:54:54.930Z,9.09
2022-09-22T02:57:22.078Z,9.08
2022-09-22T02:59:49.170Z,9.14
2022-09-22T03:02:16.490Z,9.16
2022-09-22T03:04:43.672Z,9.10
2022-09-22T03:07:10.650Z,9.09
2022-09-22T03:09:37.819Z,9.08
2022-09-22T03:12:05.045Z,9.07
2022-09-22T03:14:32.069Z,8.98
2022-09-22T03:16:59.350Z,8.98
2022-09-22T03:19:26.411Z,8.99
2022-09-22T03:21:53.411Z,9.03
2022-09-22T03:24:20.450Z,9.03
2022-09-22T03:26:47.490Z,8.99
2022-09-22T03:29:14.530Z,9.00
2022-09-22T03:31:41.452Z,8.98
2022-09-22T03:34:08.670Z,8.93
2022-09-22T03:36:35.691Z,8.93
2022-09-22T03:39:02.750Z,8.83
2022-09-22T03:41:29.830Z,8.78
2022-09-22T03:43:56.918Z,8.73
2022-09-22T03:46:23.937Z,8.71
2022-09-22T03:48:51.190Z,8.76
2022-09-22T03:51:19.592Z,8.78
2022-09-22T03:53:46.670Z,8.74
2022-09-22T03:56:16.450Z,8.69
2022-09-22T03:58:44.251Z,8.73
2022-09-22T04:01:11.721Z,8.65
2022-09-22T04:03:39.880Z,8.72
2022-09-22T04:06:07.430Z,8.72
2022-09-22T04:08:34.691Z,8.72
2022-09-22T04:11:03.552Z,8.80
2022-09-22T04:13:31.018Z,8.82
2022-09-22T04:15:58.871Z,8.75
2022-09-22T04:18:26.833Z,8.83
2022-09-22T04:20:58.508Z,8.78
2022-09-22T04:23:27.576Z,8.79
2022-09-22T04:25:55.263Z,8.87
2022-09-22T04:28:22.942Z,8.91
2022-09-22T04:30:50.644Z,8.98
2022-09-22T04:33:18.044Z,9.02
2022-09-22T04:35:45.468Z,9.04
2022-09-22T04:38:14.257Z,9.06
2022-09-22T04:40:41.797Z,9.09
2022-09-22T04:43:09.116Z,9.06
2022-09-22T04:45:39.634Z,9.13
2022-09-22T04:48:07.258Z,9.21
2022-09-22T04:50:34.348Z,9.21
2022-09-22T04:53:07.135Z,9.20
2022-09-22T04:55:35.299Z,9.21
2022-09-22T04:58:02.900Z,9.21
2022-09-22T05:00:30.909Z,9.27
2022-09-22T05:02:58.571Z,9.29
2022-09-22T05:05:25.823Z,9.27
2022-09-22T05:07:55.858Z,9.27
2022-09-22T05:10:25.575Z,9.31
2022-09-22T05:12:56.175Z,9.31
2022-09-22T05:15:23.458Z,9.33
2022-09-22T05:17:53.469Z,9.33
2022-09-22T05:20:21.535Z,9.42
2022-09-22T05:22:49.536Z,9.47
2022-09-22T05:25:19.336Z,9.52
2022-09-22T05:27:48.023Z,9.62
2022-09-22T05:30:15.819Z,9.66
2022-09-22T05:32:45.015Z,9.82
2022-09-22T05:35:13.855Z,10.00
2022-09-22T05:37:45.300Z,10.17
2022-09-22T05:40:13.714Z,10.34
2022-09-22T05:42:47.992Z,10.49
2022-09-22T05:45:16.660Z,10.59
2022-09-22T05:47:44.340Z,10.69
2022-09-22T05:50:13.856Z,10.82
2022-09-22T05:52:41.153Z,10.93
2022-09-22T05:55:08.951Z,11.04
2022-09-22T05:57:36.155Z,11.12
2022-09-22T06:00:05.681Z,11.20
2022-09-22T06:02:39.730Z,11.20
2022-09-22T06:05:07.547Z,11.17
2022-09-22T06:07:34.889Z,11.23
2022-09-22T06:10:02.337Z,11.25
2022-09-22T06:12:29.615Z,11.30
2022-09-22T06:14:57.384Z,11.42
2022-09-22T06:17:24.565Z,11.48
2022-09-22T06:19:51.993Z,11.54
2022-09-22T06:22:19.291Z,11.52
2022-09-22T06:24:46.542Z,11.47
2022-09-22T06:27:13.872Z,11.44
2022-09-22T06:29:42.003Z,11.39
2022-09-22T06:32:09.869Z,11.32
2022-09-22T06:34:38.570Z,11.31
2022-09-22T06:37:09.742Z,11.30
2022-09-22T06:39:40.741Z,11.26
2022-09-22T06:42:08.710Z,11.29
2022-09-22T06:44:36.130Z,11.30
2022-09-22T06:47:08.932Z,11.42
2022-09-22T06:49:36.477Z,11.54
2022-09-22T06:52:04.263Z,11.58
2022-09-22T06:54:31.686Z,11.69
2022-09-22T06:56:58.777Z,11.74
2022-09-22T06:59:26.099Z,11.87
2022-09-22T07:01:53.443Z,11.98
2022-09-22T07:04:22.668Z,12.12
2022-09-22T07:06:50.713Z,12.23
2022-09-22T07:09:18.282Z,12.38
2022-09-22T07:11:45.468Z,12.46
2022-09-22T07:14:12.871Z,12.58
2022-09-22T07:16:41.248Z,12.52
2022-09-22T07:19:08.833Z,12.66
2022-09-22T07:21:38.070Z,12.80
2022-09-22T07:24:08.540Z,12.84
2022-09-22T07:26:38.515Z,12.95
2022-09-22T07:29:08.969Z,13.05
2022-09-22T07:31:37.152Z,13.09
2022-09-22T07:34:04.467Z,13.19
2022-09-22T07:36:34.332Z,13.27
2022-09-22T07:39:11.503Z,13.39
2022-09-22T07:41:43.631Z,13.43
2022-09-22T07:44:43.712Z,13.52
2022-09-22T07:47:11.778Z,13.70
2022-09-22T07:49:39.020Z,13.75
2022-09-22T07:52:06.414Z,13.78
2022-09-22T07:54:37.097Z,13.68
2022-09-22T07:57:07.017Z,13.82
2022-09-22T07:59:36.498Z,13.84
2022-09-22T08:02:03.759Z,13.95
2022-09-22T08:04:32.265Z,14.04
2022-09-22T08:06:59.459Z,14.17
2022-09-22T08:09:26.982Z,14.10
2022-09-22T08:11:55.539Z,14.33
2022-09-22T08:14:24.256Z,14.47
2022-09-22T08:16:53.891Z,14.62
2022-09-22T08:19:24.117Z,14.80
2022-09-22T08:21:54.516Z,14.91
2022-09-22T08:24:23.372Z,15.01
2022-09-22T08:26:53.371Z,15.11
2022-09-22T08:29:21.531Z,15.26
2022-09-22T08:31:49.754Z,15.35
2022-09-22T08:34:18.398Z,15.39
2022-09-22T08:36:49.108Z,15.44
2022-09-22T08:39:19.853Z,15.50
2022-09-22T08:42:09.704Z,15.57
2022-09-22T08:44:54.867Z,15.56
2022-09-22T08:47:51.690Z,15.66
2022-09-22T08:51:03.822Z,15.80
2022-09-22T08:53:35.708Z,15.86
2022-09-22T08:56:30.949Z,15.95
2022-09-22T08:59:04.710Z,16.07
2022-09-22T09:02:11.514Z,16.18
2022-09-22T09:04:42.324Z,16.28
2022-09-22T09:07:10.426Z,16.35
2022-09-22T09:10:10.155Z,16.42
2022-09-22T09:12:49.020Z,16.50
2022-09-22T09:15:26.989Z,16.61
2022-09-22T09:17:59.422Z,16.64
2022-09-22T09:20:45.597Z,16.76
2022-09-22T09:23:19.651Z,16.77
2022-09-22T09:25:54.025Z,16.79
2022-09-22T09:28:32.062Z,16.96
2022-09-22T09:31:08.016Z,17.11
2022-09-22T09:33:47.151Z,17.25
2022-09-22T09:36:33.382Z,17.45
2022-09-22T09:39:11.468Z,17.26
2022-09-22T09:41:42.183Z,17.58
2022-09-22T09:44:20.506Z,17.67
2022-09-22T09:47:02.514Z,17.67
2022-09-22T09:49:30.198Z,17.54
2022-09-22T09:52:01.139Z,17.74
2022-09-22T09:54:28.904Z,17.80
2022-09-22T09:57:11.659Z,17.98
2022-09-22T10:00:00.471Z,18.04
2022-09-22T10:02:31.752Z,18.21
2022-09-22T10:05:01.175Z,18.31
2022-09-22T10:10:35.881Z,18.30
2022-09-22T10:13:03.382Z,18.37
2022-09-22T10:15:36.173Z,18.51
2022-09-22T10:18:24.301Z,18.42
2022-09-22T10:21:18.705Z,18.40
2022-09-22T10:23:54.094Z,18.35
2022-09-22T10:26:31.019Z,18.25
2022-09-22T10:29:13.418Z,18.17
2022-09-22T10:31:42.270Z,18.08
2022-09-22T10:34:34.991Z,17.98
2022-09-22T10:37:09.339Z,17.93
2022-09-22T10:39:47.379Z,17.88
2022-09-22T10:42:34.698Z,17.83
2022-09-22T10:45:14.348Z,17.79
2022-09-22T10:47:51.698Z,17.82
2022-09-22T10:50:48.498Z,17.78
2022-09-22T10:53:17.895Z,17.84
2022-09-22T10:56:13.095Z,17.85
2022-09-22T10:59:32.862Z,17.83
2022-09-22T11:14:02.575Z,17.27
2022-09-22T11:16:38.537Z,17.40
2022-09-22T11:19:31.775Z,17.68
2022-09-22T11:22:08.217Z,17.90
2022-09-22T11:24:55.734Z,18.04
2022-09-22T11:27:36.858Z,18.15
2022-09-22T11:30:23.334Z,18.50
2022-09-22T11:33:05.645Z,18.83
2022-09-22T11:35:51.184Z,19.13
2022-09-22T11:38:36.577Z,19.67
2022-09-22T11:41:31.655Z,20.11
2022-09-22T11:44:44.030Z,20.64
2022-09-22T11:47:43.755Z,20.98
2022-09-22T11:50:22.704Z,21.25
2022-09-22T11:53:08.503Z,21.28
2022-09-22T11:55:56.828Z,21.23
2022-09-22T11:58:28.382Z,21.28
2022-09-22T12:01:01.662Z,21.23
2022-09-22T12:03:35.988Z,21.06
2022-09-22T12:06:06.783Z,20.94
2022-09-22T12:08:39.741Z,20.60
2022-09-22T12:11:10.975Z,20.54
2022-09-22T12:13:46.203Z,20.09
2022-09-22T12:16:25.614Z,19.75
2022-09-22T12:19:03.562Z,20.05
2022-09-22T12:21:54.852Z,20.09
2022-09-22T12:24:22.190Z,20.04
2022-09-22T12:26:51.440Z,19.98
2022-09-22T12:29:30.819Z,19.93
2022-09-22T12:31:59.352Z,19.91
2022-09-22T12:34:29.550Z,19.78
2022-09-22T12:37:08.754Z,19.63
2022-09-22T12:39:44.633Z,19.40
2022-09-22T12:42:36.763Z,19.30
2022-09-22T12:45:20.933Z,19.05
2022-09-22T12:47:55.031Z,18.29
2022-09-22T12:50:25.009Z,18.49
2022-09-22T12:52:51.977Z,18.42
2022-09-22T12:55:40.049Z,18.04
2022-09-22T12:58:19.813Z,17.84
2022-09-22T13:00:51.041Z,17.75
2022-09-22T13:03:27.330Z,17.66
2022-09-22T13:05:59.861Z,17.48
2022-09-22T13:08:33.061Z,17.55
2022-09-22T13:11:05.984Z,17.47
2022-09-22T13:13:40.280Z,17.32
2022-09-22T13:16:16.810Z,17.24
2022-09-22T13:19:01.643Z,17.32
2022-09-22T13:21:31.371Z,17.34
2022-09-22T13:24:02.732Z,17.47
2022-09-22T13:26:39.121Z,17.66
2022-09-22T13:29:12.585Z,18.15
2022-09-22T13:31:51.304Z,18.74
2022-09-22T13:34:29.368Z,19.38
2022-09-22T13:36:58.972Z,20.18
2022-09-22T13:39:28.984Z,20.67
2022-09-22T13:42:04.280Z,21.48
2022-09-22T13:44:34.467Z,21.88
2022-09-22T13:47:07.134Z,22.06
2022-09-22T13:49:42.569Z,22.02
2022-09-22T13:52:18.227Z,22.03
2022-09-22T13:54:50.204Z,22.19
2022-09-22T13:57:28.176Z,21.48
2022-09-22T13:59:57.907Z,21.28
2022-09-22T14:02:30.774Z,20.73
2022-09-22T14:05:18.638Z,19.71
2022-09-22T14:08:07.770Z,19.31
2022-09-22T14:10:34.475Z,18.75
2022-09-22T14:13:01.377Z,18.57
2022-09-22T14:15:37.894Z,18.24
2022-09-22T14:18:26.621Z,18.25
2022-09-22T14:20:57.366Z,18.03
2022-09-22T14:23:31.611Z,18.37
2022-09-22T14:26:02.101Z,18.88
2022-09-22T14:28:35.193Z,19.19
2022-09-22T14:31:02.809Z,19.25
2022-09-22T14:33:33.688Z,19.24
2022-09-22T14:36:06.798Z,18.98
2022-09-22T14:38:44.452Z,18.82
2022-09-22T14:41:26.569Z,18.67
2022-09-22T14:43:54.760Z,18.76
2022-09-22T14:46:22.064Z,18.75
2022-09-22T14:48:49.214Z,18.64
2022-09-22T14:51:21.880Z,18.55
2022-09-22T14:53:55.627Z,18.34
2022-09-22T14:56:29.280Z,18.20
2022-09-22T14:59:22.744Z,17.99
2022-09-22T15:02:09.746Z,17.94
2022-09-22T15:04:41.163Z,17.77
2022-09-22T15:07:24.925Z,17.63
2022-09-22T15:09:55.704Z,17.54
2022-09-22T15:12:41.051Z,17.29
2022-09-22T15:15:26.955Z,17.09
2022-09-22T15:18:19.650Z,17.04
2022-09-22T15:20:52.397Z,16.98
2022-09-22T15:23:35.841Z,16.99
2022-09-22T15:26:06.627Z,16.94
2022-09-22T15:28:38.179Z,16.74
2022-09-22T15:31:09.386Z,16.79
2022-09-22T15:33:36.524Z,16.67
2022-09-22T15:36:11.408Z,16.61
2022-09-22T15:38:39.320Z,16.56
2022-09-22T15:41:11.043Z,16.47
2022-09-22T15:43:41.820Z,16.46
2022-09-22T15:46:34.182Z,16.39
2022-09-22T15:49:06.485Z,16.31
2022-09-22T15:51:33.660Z,16.33
2022-09-22T15:54:00.784Z,16.27
2022-09-22T15:56:30.358Z,16.42
2022-09-22T15:59:01.262Z,16.42
2022-09-22T16:01:29.747Z,16.41
2022-09-22T16:04:00.450Z,16.40
2022-09-22T16:06:27.745Z,16.39
2022-09-22T16:08:55.521Z,16.35
2022-09-22T16:11:31.608Z,16.37
2022-09-22T16:14:06.232Z,16.25
2022-09-22T16:16:36.027Z,16.15
2022-09-22T16:19:03.019Z,16.10
2022-09-22T16:21:30.918Z,15.96
2022-09-22T16:24:03.624Z,15.93
2022-09-22T16:26:32.134Z,15.85
2022-09-22T16:28:59.980Z,15.76
2022-09-22T16:31:27.766Z,15.62
2022-09-22T16:33:56.634Z,15.53
2022-09-22T16:36:58.301Z,15.45
2022-09-22T16:39:25.377Z,15.36
2022-09-22T16:41:52.322Z,15.23
2022-09-22T16:44:19.357Z,15.12
2022-09-22T16:46:46.298Z,15.04
2022-09-22T16:49:16.411Z,14.92
2022-09-22T16:51:49.019Z,14.80
2022-09-22T16:54:16.819Z,14.69
2022-09-22T16:56:47.000Z,14.54
2022-09-22T16:59:19.297Z,14.41
2022-09-22T17:01:46.561Z,14.38
2022-09-22T17:04:21.850Z,14.27
2022-09-22T17:06:49.959Z,14.08
2022-09-22T17:09:17.633Z,14.02
2022-09-22T17:11:46.773Z,13.84
2022-09-22T17:14:16.071Z,13.78
2022-09-22T17:16:55.758Z,13.62
2022-09-22T17:19:26.521Z,13.60
2022-09-22T17:21:55.623Z,13.55
2022-09-22T17:24:24.992Z,13.41
2022-09-22T17:26:57.934Z,13.40
2022-09-22T17:29:27.382Z,13.28
2022-09-22T17:32:02.892Z,13.22
2022-09-22T17:34:33.054Z,13.09
2022-09-22T17:37:03.082Z,13.01
2022-09-22T17:39:32.420Z,12.96
2022-09-22T17:41:59.526Z,12.91
2022-09-22T17:44:28.961Z,12.82
2022-09-22T17:47:14.997Z,12.77
2022-09-22T17:50:00.356Z,12.67
2022-09-22T17:52:40.134Z,12.56
2022-09-22T17:55:19.184Z,12.53
2022-09-22T17:57:46.693Z,12.47
2022-09-22T18:00:16.355Z,12.47
2022-09-22T18:02:45.367Z,12.42
2022-09-22T18:05:15.301Z,12.38
2022-09-22T18:07:42.666Z,12.35
2022-09-22T18:10:12.778Z,12.28
2022-09-22T18:12:40.569Z,12.30
2022-09-22T18:15:08.436Z,12.24
2022-09-22T18:17:43.187Z,12.14
2022-09-22T18:20:13.355Z,12.08
2022-09-22T18:22:42.003Z,12.09
2022-09-22T18:25:10.655Z,11.98
2022-09-22T18:27:38.335Z,11.94
2022-09-22T18:30:06.433Z,11.94
2022-09-22T18:32:35.009Z,11.89
2022-09-22T18:35:02.592Z,11.85
2022-09-22T18:37:29.762Z,11.82
2022-09-22T18:39:57.759Z,11.83
2022-09-22T18:42:27.721Z,11.71
2022-09-22T18:44:54.641Z,11.71
2022-09-22T18:47:23.803Z,11.73
2022-09-22T18:49:54.000Z,11.77
2022-09-22T18:52:25.002Z,11.73
2022-09-22T18:54:54.677Z,11.67
2022-09-22T18:57:24.620Z,11.53
2022-09-22T18:59:52.079Z,11.55
2022-09-22T19:02:23.345Z,11.49
2022-09-22T19:04:54.000Z,11.49
2022-09-22T19:07:42.572Z,11.36
2022-09-22T19:10:12.490Z,11.33
2022-09-22T19:12:40.929Z,11.32
2022-09-22T19:15:14.042Z,11.30
2022-09-22T19:17:47.242Z,11.31
2022-09-22T19:20:22.223Z,11.27
2022-09-22T19:22:50.710Z,11.25
2022-09-22T19:25:20.270Z,11.27
2022-09-22T19:27:47.820Z,11.29
2022-09-22T19:30:14.810Z,11.28
2022-09-22T19:32:42.100Z,11.30
2022-09-22T19:35:09.962Z,11.30
2022-09-22T19:37:37.390Z,11.32
2022-09-22T19:40:06.791Z,11.30
2022-09-22T19:42:40.028Z,11.28
2022-09-22T19:45:08.079Z,11.27
2022-09-22T19:47:35.777Z,11.21
2022-09-22T19:50:03.401Z,11.16
2022-09-22T19:52:30.304Z,11.12
2022-09-22T19:54:57.292Z,11.13
2022-09-22T19:57:24.462Z,11.14
2022-09-22T19:59:51.402Z,11.17
2022-09-22T20:02:18.619Z,11.13
2022-09-22T20:04:46.691Z,11.08
2022-09-22T20:07:13.969Z,11.10
2022-09-22T20:09:40.942Z,11.01
2022-09-22T20:12:08.282Z,10.97
2022-09-22T20:14:35.440Z,11.02
2022-09-22T20:17:06.480Z,11.01
2022-09-22T20:19:35.381Z,11.05
2022-09-22T20:22:29.392Z,11.09
2022-09-22T20:24:59.040Z,11.11
2022-09-22T20:27:29.371Z,11.09
2022-09-22T20:29:58.451Z,11.07
2022-09-22T20:32:26.981Z,11.08
2022-09-22T20:34:55.638Z,11.09
2022-09-22T20:37:23.325Z,11.02
2022-09-22T20:39:50.762Z,11.04
2022-09-22T20:42:18.323Z,11.03
2022-09-22T20:44:45.551Z,11.02
2022-09-22T20:47:18.102Z,11.03
2022-09-22T20:49:50.681Z,10.89
2022-09-22T20:52:20.473Z,10.83
2022-09-22T20:54:48.465Z,10.75
2022-09-22T20:57:16.326Z,10.72
2022-09-22T20:59:45.994Z,10.58
2022-09-22T21:02:14.258Z,10.53
2022-09-22T21:04:41.632Z,10.48
2022-09-22T21:07:09.269Z,10.45
2022-09-22T21:09:54.603Z,10.37
2022-09-22T21:12:21.602Z,10.45
2022-09-22T21:14:48.951Z,10.45
2022-09-22T21:17:15.925Z,10.44
2022-09-22T21:19:43.531Z,10.44
2022-09-22T21:22:10.735Z,10.44
2022-09-22T21:24:37.632Z,10.50
2022-09-22T21:27:05.403Z,10.56
2022-09-22T21:29:32.572Z,10.49
2022-09-22T21:32:00.808Z,10.55
2022-09-22T21:34:27.970Z,10.52
2022-09-22T21:36:54.893Z,10.49
2022-09-22T21:39:22.509Z,10.52
2022-09-22T21:41:49.861Z,10.56
2022-09-22T21:44:16.756Z,10.54
2022-09-22T21:46:44.495Z,10.51
2022-09-22T21:49:11.782Z,10.47
2022-09-22T21:51:44.250Z,10.22
2022-09-22T21:54:17.821Z,10.24
2022-09-22T21:56:45.732Z,10.22
2022-09-22T21:59:13.412Z,10.24
2022-09-22T22:01:42.366Z,10.21
2022-09-22T22:04:10.568Z,10.24
2022-09-22T22:06:40.957Z,10.27
2022-09-22T22:09:14.852Z,10.32
2022-09-22T22:11:56.868Z,10.28
2022-09-22T22:14:26.240Z,10.30
2022-09-22T22:16:55.122Z,10.30
2022-09-22T22:19:25.977Z,10.29
2022-09-22T22:21:53.568Z,10.26
2022-09-22T22:24:30.091Z,10.22
2022-09-22T22:27:06.717Z,10.21
2022-09-22T22:29:38.944Z,10.21
2022-09-22T22:32:08.902Z,10.22
2022-09-22T22:34:35.898Z,10.25
2022-09-22T22:37:04.861Z,10.22
2022-09-22T22:39:32.790Z,10.21
2022-09-22T22:41:59.726Z,10.22
2022-09-22T22:44:26.620Z,10.23
2022-09-22T22:46:53.601Z,10.20
2022-09-22T22:49:20.500Z,10.13
2022-09-22T22:51:49.369Z,10.10
2022-09-22T22:54:16.410Z,10.11
2022-09-22T22:56:46.707Z,10.02
2022-09-22T22:59:16.008Z,9.99
2022-09-22T23:01:44.535Z,10.00
2022-09-22T23:04:12.120Z,9.97
2022-09-22T23:06:41.960Z,9.91
2022-09-22T23:09:12.001Z,9.71
2022-09-22T23:11:40.332Z,9.77
2022-09-22T23:14:09.407Z,9.71
2022-09-22T23:16:45.434Z,9.64
2022-09-22T23:19:17.825Z,9.60
2022-09-22T23:21:45.397Z,9.62
2022-09-22T23:24:17.277Z,9.61
2022-09-22T23:26:45.773Z,9.59
2022-09-22T23:29:13.271Z,9.56
2022-09-22T23:31:40.307Z,9.49
2022-09-22T23:34:07.241Z,9.49
2022-09-22T23:36:34.651Z,9.47
2022-09-22T23:39:04.285Z,9.44
2022-09-22T23:41:33.269Z,9.38
2022-09-22T23:44:00.569Z,9.36
2022-09-22T23:46:28.207Z,9.35
2022-09-22T23:48:55.853Z,9.36
2022-09-22T23:51:23.505Z,9.41
2022-09-22T23:53:50.685Z,9.43
2022-09-22T23:56:17.746Z,9.44
2022-09-22T23:58:45.592Z,9.42
